Terminal Aerodrome Forecast
Issued by NWS

Home | Current Version | Previous Version | Graphics & Text | Print | Product List | Glossary On
Versions: 1 2 3 4 5 6 7 8 9 10 11 12 13 14 15
969
FTUS45 KRIW 220525
TAFBPI
TAF
KBPI 220525Z 2206/2306 33007KT P6SM SKC
     FM221000 VRB03KT P6SM VCFG SCT004
     FM221530 VRB05KT P6SM SKC
     FM222200 16009KT P6SM FEW060=

USA.gov is the U.S. government's official web portal to all federal, state and local government web resources and services.